sensor_id;sensor_type;location;lat;lon;timestamp;pressure;altitude;pressure_sealevel;temperature;humidity
32642;BME280;19323;56.072;9.698;2023-01-30T00:00:56;99266.41;;;25.75;37.07
32642;BME280;19323;56.072;9.698;2023-01-30T00:03:22;99275.50;;;25.74;36.78
32642;BME280;19323;56.072;9.698;2023-01-30T00:05:47;99275.28;;;25.75;36.88
32642;BME280;19323;56.072;9.698;2023-01-30T00:08:13;99266.41;;;25.75;36.86
32642;BME280;19323;56.072;9.698;2023-01-30T00:10:38;99273.63;;;25.74;36.85
32642;BME280;19323;56.072;9.698;2023-01-30T00:13:04;99269.09;;;25.75;36.82
32642;BME280;19323;56.072;9.698;2023-01-30T00:15:29;99272.59;;;25.75;36.85
32642;BME280;19323;56.072;9.698;2023-01-30T00:17:54;99262.69;;;25.76;37.06
32642;BME280;19323;56.072;9.698;2023-01-30T00:20:19;99268.03;;;25.76;36.67
32642;BME280;19323;56.072;9.698;2023-01-30T00:22:44;99259.00;;;25.77;36.68
32642;BME280;19323;56.072;9.698;2023-01-30T00:25:09;99250.94;;;25.77;36.62
32642;BME280;19323;56.072;9.698;2023-01-30T00:27:34;99250.94;;;25.77;36.98
32642;BME280;19323;56.072;9.698;2023-01-30T00:30:00;99249.28;;;25.76;36.81
32642;BME280;19323;56.072;9.698;2023-01-30T00:32:28;99248.44;;;25.75;36.66
32642;BME280;19323;56.072;9.698;2023-01-30T00:34:53;99252.81;;;25.76;36.77
32642;BME280;19323;56.072;9.698;2023-01-30T00:37:18;99251.94;;;25.76;36.79
32642;BME280;19323;56.072;9.698;2023-01-30T00:39:43;99249.28;;;25.76;36.62
32642;BME280;19323;56.072;9.698;2023-01-30T00:42:09;99240.41;;;25.75;36.66
32642;BME280;19323;56.072;9.698;2023-01-30T00:44:52;99231.53;;;25.75;36.93
32642;BME280;19323;56.072;9.698;2023-01-30T00:47:37;99232.34;;;25.75;36.81
32642;BME280;19323;56.072;9.698;2023-01-30T00:50:02;99234.22;;;25.75;36.84
32642;BME280;19323;56.072;9.698;2023-01-30T00:52:27;99233.41;;;25.74;36.85
32642;BME280;19323;56.072;9.698;2023-01-30T00:54:52;99222.66;;;25.74;36.71
32642;BME280;19323;56.072;9.698;2023-01-30T00:57:17;99217.31;;;25.74;36.59
32642;BME280;19323;56.072;9.698;2023-01-30T00:59:43;99208.44;;;25.74;36.95
32642;BME280;19323;56.072;9.698;2023-01-30T01:02:08;99211.94;;;25.74;36.50
32642;BME280;19323;56.072;9.698;2023-01-30T01:04:33;99220.00;;;25.74;36.53
32642;BME280;19323;56.072;9.698;2023-01-30T01:07:07;99213.81;;;25.74;36.93
32642;BME280;19323;56.072;9.698;2023-01-30T01:09:32;99208.44;;;25.74;36.58
32642;BME280;19323;56.072;9.698;2023-01-30T01:11:57;99220.19;;;25.73;36.54
32642;BME280;19323;56.072;9.698;2023-01-30T01:14:22;99203.06;;;25.74;36.70
32642;BME280;19323;56.072;9.698;2023-01-30T01:16:47;99208.44;;;25.74;36.70
32642;BME280;19323;56.072;9.698;2023-01-30T01:19:12;99201.41;;;25.73;36.58
32642;BME280;19323;56.072;9.698;2023-01-30T01:21:38;99202.22;;;25.73;36.67
32642;BME280;19323;56.072;9.698;2023-01-30T01:24:03;99198.72;;;25.73;36.86
32642;BME280;19323;56.072;9.698;2023-01-30T01:26:28;99205.75;;;25.74;36.70
32642;BME280;19323;56.072;9.698;2023-01-30T01:28:54;99214.81;;;25.73;36.71
32642;BME280;19323;56.072;9.698;2023-01-30T01:31:20;99206.78;;;25.73;36.58
32642;BME280;19323;56.072;9.698;2023-01-30T01:33:45;99208.44;;;25.74;36.88
32642;BME280;19323;56.072;9.698;2023-01-30T01:36:10;99208.44;;;25.74;36.51
32642;BME280;19323;56.072;9.698;2023-01-30T01:38:35;99198.53;;;25.74;36.59
32642;BME280;19323;56.072;9.698;2023-01-30T01:41:00;99195.63;;;25.76;36.62
32642;BME280;19323;56.072;9.698;2023-01-30T01:43:26;99202.03;;;25.75;36.54
32642;BME280;19323;56.072;9.698;2023-01-30T01:45:52;99207.59;;;25.73;36.86
32642;BME280;19323;56.072;9.698;2023-01-30T01:48:40;99194.41;;;25.72;36.58
32642;BME280;19323;56.072;9.698;2023-01-30T01:51:05;99203.06;;;25.74;36.74
32642;BME280;19323;56.072;9.698;2023-01-30T01:53:34;99196.88;;;25.73;36.46
32642;BME280;19323;56.072;9.698;2023-01-30T01:56:00;99185.31;;;25.73;36.64
32642;BME280;19323;56.072;9.698;2023-01-30T02:00:51;99180.16;;;25.71;36.83
32642;BME280;19323;56.072;9.698;2023-01-30T02:03:22;99189.84;;;25.72;36.51
32642;BME280;19323;56.072;9.698;2023-01-30T02:05:49;99195.22;;;25.72;36.69
32642;BME280;19323;56.072;9.698;2023-01-30T02:08:22;99188.00;;;25.73;36.58
32642;BME280;19323;56.072;9.698;2023-01-30T02:10:59;99192.53;;;25.72;36.64
32642;BME280;19323;56.072;9.698;2023-01-30T02:13:27;99196.03;;;25.73;36.77
32642;BME280;19323;56.072;9.698;2023-01-30T02:15:52;99193.38;;;25.73;36.75
32642;BME280;19323;56.072;9.698;2023-01-30T02:18:19;99193.38;;;25.73;36.59
32642;BME280;19323;56.072;9.698;2023-01-30T02:20:48;99199.75;;;25.72;36.68
32642;BME280;19323;56.072;9.698;2023-01-30T02:23:22;99201.41;;;25.73;36.43
32642;BME280;19323;56.072;9.698;2023-01-30T02:26:14;99189.84;;;25.72;36.64
32642;BME280;19323;56.072;9.698;2023-01-30T02:39:25;99142.81;;;25.69;36.44
32642;BME280;19323;56.072;9.698;2023-01-30T02:41:56;99142.81;;;25.69;36.73
32642;BME280;19323;56.072;9.698;2023-01-30T02:44:37;99152.69;;;25.69;36.49
32642;BME280;19323;56.072;9.698;2023-01-30T02:47:17;99139.09;;;25.70;36.56
32642;BME280;19323;56.072;9.698;2023-01-30T02:49:45;99149.81;;;25.70;36.72
32642;BME280;19323;56.072;9.698;2023-01-30T02:52:12;99156.22;;;25.69;36.62
32642;BME280;19323;56.072;9.698;2023-01-30T02:54:38;99155.19;;;25.70;36.70
32642;BME280;19323;56.072;9.698;2023-01-30T02:57:03;99129.41;;;25.69;36.44
32642;BME280;19323;56.072;9.698;2023-01-30T02:59:36;99132.09;;;25.69;36.41
32642;BME280;19323;56.072;9.698;2023-01-30T03:02:25;99141.78;;;25.70;36.67
32642;BME280;19323;56.072;9.698;2023-01-30T03:07:43;99124.06;;;25.69;36.44
32642;BME280;19323;56.072;9.698;2023-01-30T03:10:14;99126.72;;;25.69;36.48
32642;BME280;19323;56.072;9.698;2023-01-30T03:15:15;99128.78;;;25.67;36.67
32642;BME280;19323;56.072;9.698;2023-01-30T03:17:43;99128.78;;;25.67;36.28
32642;BME280;19323;56.072;9.698;2023-01-30T03:20:09;99131.47;;;25.67;36.59
32642;BME280;19323;56.072;9.698;2023-01-30T03:22:34;99128.78;;;25.67;36.41
32642;BME280;19323;56.072;9.698;2023-01-30T03:25:00;99142.19;;;25.67;36.64
32642;BME280;19323;56.072;9.698;2023-01-30T03:27:25;99123.41;;;25.67;36.62
32642;BME280;19323;56.072;9.698;2023-01-30T03:29:50;99113.50;;;25.68;36.62
32642;BME280;19323;56.072;9.698;2023-01-30T03:32:15;99110.00;;;25.67;36.45
32642;BME280;19323;56.072;9.698;2023-01-30T03:34:41;99097.44;;;25.68;36.58
32642;BME280;19323;56.072;9.698;2023-01-30T03:37:06;99100.09;;;25.68;36.49
32642;BME280;19323;56.072;9.698;2023-01-30T03:39:31;99101.97;;;25.67;36.35
32642;BME280;19323;56.072;9.698;2023-01-30T03:41:56;99102.78;;;25.68;36.24
32642;BME280;19323;56.072;9.698;2023-01-30T03:44:22;99100.94;;;25.68;36.54
32642;BME280;19323;56.072;9.698;2023-01-30T03:46:47;99096.59;;;25.67;36.40
32642;BME280;19323;56.072;9.698;2023-01-30T03:49:12;99097.44;;;25.68;36.75
32642;BME280;19323;56.072;9.698;2023-01-30T03:51:37;99085.03;;;25.67;36.57
32642;BME280;19323;56.072;9.698;2023-01-30T03:54:03;99080.53;;;25.67;36.74
32642;BME280;19323;56.072;9.698;2023-01-30T03:56:29;99079.47;;;25.68;36.60
32642;BME280;19323;56.072;9.698;2023-01-30T03:58:54;99076.16;;;25.66;36.60
32642;BME280;19323;56.072;9.698;2023-01-30T04:01:19;99074.53;;;25.65;36.56
32642;BME280;19323;56.072;9.698;2023-01-30T04:03:44;99080.53;;;25.67;36.71
32642;BME280;19323;56.072;9.698;2023-01-30T04:06:10;99077.84;;;25.67;36.64
32642;BME280;19323;56.072;9.698;2023-01-30T04:08:35;99078.66;;;25.68;36.47
32642;BME280;19323;56.072;9.698;2023-01-30T04:11:00;99073.47;;;25.66;36.47
32642;BME280;19323;56.072;9.698;2023-01-30T04:13:25;99071.84;;;25.65;36.79
32642;BME280;19323;56.072;9.698;2023-01-30T04:15:50;99069.97;;;25.66;36.84
32642;BME280;19323;56.072;9.698;2023-01-30T04:18:15;99075.16;;;25.67;36.93
32642;BME280;19323;56.072;9.698;2023-01-30T04:20:41;99078.03;;;25.66;36.78
32642;BME280;19323;56.072;9.698;2023-01-30T04:23:06;99076.16;;;25.66;36.96
32642;BME280;19323;56.072;9.698;2023-01-30T04:25:31;99074.53;;;25.65;36.64
32642;BME280;19323;56.072;9.698;2023-01-30T04:27:56;99062.97;;;25.65;36.87
32642;BME280;19323;56.072;9.698;2023-01-30T04:30:21;99071.84;;;25.65;36.89
32642;BME280;19323;56.072;9.698;2023-01-30T04:32:47;99054.94;;;25.65;36.81
32642;BME280;19323;56.072;9.698;2023-01-30T04:35:12;99055.75;;;25.65;36.81
32642;BME280;19323;56.072;9.698;2023-01-30T04:37:37;99060.31;;;25.65;36.73
32642;BME280;19323;56.072;9.698;2023-01-30T04:40:02;99047.91;;;25.64;36.80
32642;BME280;19323;56.072;9.698;2023-01-30T04:42:27;99054.94;;;25.65;36.91
32642;BME280;19323;56.072;9.698;2023-01-30T04:44:53;99064.81;;;25.64;37.00
32642;BME280;19323;56.072;9.698;2023-01-30T04:47:18;99055.13;;;25.63;36.96
32642;BME280;19323;56.072;9.698;2023-01-30T04:49:43;99054.09;;;25.64;37.01
32642;BME280;19323;56.072;9.698;2023-01-30T04:52:08;99055.75;;;25.65;36.94
32642;BME280;19323;56.072;9.698;2023-01-30T04:54:33;99054.09;;;25.64;36.93
32642;BME280;19323;56.072;9.698;2023-01-30T04:56:58;99065.66;;;25.65;36.90
32642;BME280;19323;56.072;9.698;2023-01-30T04:59:24;99062.97;;;25.65;36.64
32642;BME280;19323;56.072;9.698;2023-01-30T05:01:49;99063.16;;;25.63;36.77
32642;BME280;19323;56.072;9.698;2023-01-30T05:04:14;99053.25;;;25.64;36.93
32642;BME280;19323;56.072;9.698;2023-01-30T05:06:39;99055.94;;;25.64;36.88
32642;BME280;19323;56.072;9.698;2023-01-30T05:09:04;99052.44;;;25.63;36.61
32642;BME280;19323;56.072;9.698;2023-01-30T05:11:29;99050.41;;;25.65;36.65
32642;BME280;19323;56.072;9.698;2023-01-30T05:13:56;99058.63;;;25.64;36.80
32642;BME280;19323;56.072;9.698;2023-01-30T05:16:21;99041.72;;;25.63;36.58
32642;BME280;19323;56.072;9.698;2023-01-30T05:18:47;99045.03;;;25.65;36.54
32642;BME280;19323;56.072;9.698;2023-01-30T05:21:13;99044.22;;;25.65;36.75
32642;BME280;19323;56.072;9.698;2023-01-30T05:23:39;99039.66;;;25.65;36.50
32642;BME280;19323;56.072;9.698;2023-01-30T05:26:04;99037.19;;;25.64;36.60
32642;BME280;19323;56.072;9.698;2023-01-30T05:28:29;99014.91;;;25.63;36.68
32642;BME280;19323;56.072;9.698;2023-01-30T05:31:01;99030.19;;;25.63;36.65
32642;BME280;19323;56.072;9.698;2023-01-30T05:33:26;99031.19;;;25.62;36.62
32642;BME280;19323;56.072;9.698;2023-01-30T05:35:52;99027.69;;;25.61;36.61
32642;BME280;19323;56.072;9.698;2023-01-30T05:38:17;99022.31;;;25.61;36.62
32642;BME280;19323;56.072;9.698;2023-01-30T05:40:42;99023.16;;;25.62;36.68
32642;BME280;19323;56.072;9.698;2023-01-30T05:43:07;99010.78;;;25.61;36.54
32642;BME280;19323;56.072;9.698;2023-01-30T05:45:33;99008.09;;;25.61;36.74
32642;BME280;19323;56.072;9.698;2023-01-30T05:47:58;99005.63;;;25.59;36.64
32642;BME280;19323;56.072;9.698;2023-01-30T05:50:24;99004.56;;;25.60;36.41
32642;BME280;19323;56.072;9.698;2023-01-30T05:52:49;99007.25;;;25.60;36.63
32642;BME280;19323;56.072;9.698;2023-01-30T05:55:14;99017.78;;;25.62;36.38
32642;BME280;19323;56.072;9.698;2023-01-30T05:57:39;99014.28;;;25.61;36.82
32642;BME280;19323;56.072;9.698;2023-01-30T06:00:05;98996.75;;;25.59;36.69
32642;BME280;19323;56.072;9.698;2023-01-30T06:02:30;99009.94;;;25.60;36.91
32642;BME280;19323;56.072;9.698;2023-01-30T06:04:55;99020.06;;;25.58;36.86
32642;BME280;19323;56.072;9.698;2023-01-30T06:07:21;99012.03;;;25.58;36.93
32642;BME280;19323;56.072;9.698;2023-01-30T06:09:46;99018.38;;;25.57;36.93
32642;BME280;19323;56.072;9.698;2023-01-30T06:12:11;99018.38;;;25.57;36.87
32642;BME280;19323;56.072;9.698;2023-01-30T06:14:36;99022.75;;;25.58;36.69
32642;BME280;19323;56.072;9.698;2023-01-30T06:17:01;99029.75;;;25.59;37.00
32642;BME280;19323;56.072;9.698;2023-01-30T06:19:27;99019.03;;;25.59;36.97
32642;BME280;19323;56.072;9.698;2023-01-30T06:21:52;99020.06;;;25.58;36.83
32642;BME280;19323;56.072;9.698;2023-01-30T06:24:17;99022.75;;;25.58;36.97
32642;BME280;19323;56.072;9.698;2023-01-30T06:26:42;99021.06;;;25.57;37.03
32642;BME280;19323;56.072;9.698;2023-01-30T06:29:07;99021.06;;;25.57;36.95
32642;BME280;19323;56.072;9.698;2023-01-30T06:31:33;99023.56;;;25.59;36.85
32642;BME280;19323;56.072;9.698;2023-01-30T06:33:58;99024.56;;;25.58;36.91
32642;BME280;19323;56.072;9.698;2023-01-30T06:36:23;99004.78;;;25.59;36.95
32642;BME280;19323;56.072;9.698;2023-01-30T06:38:48;99006.66;;;25.58;36.91
32642;BME280;19323;56.072;9.698;2023-01-30T06:41:13;99005.81;;;25.58;36.92
32642;BME280;19323;56.072;9.698;2023-01-30T06:43:40;99000.44;;;25.58;36.88
32642;BME280;19323;56.072;9.698;2023-01-30T06:46:05;98994.25;;;25.57;37.11
32642;BME280;19323;56.072;9.698;2023-01-30T06:48:30;99000.44;;;25.58;36.99
32642;BME280;19323;56.072;9.698;2023-01-30T06:50:55;98995.94;;;25.58;36.97
32642;BME280;19323;56.072;9.698;2023-01-30T06:53:20;98994.25;;;25.57;36.95
32642;BME280;19323;56.072;9.698;2023-01-30T06:55:49;98988.91;;;25.57;37.03
32642;BME280;19323;56.072;9.698;2023-01-30T06:58:14;99004.16;;;25.57;37.45
32642;BME280;19323;56.072;9.698;2023-01-30T07:00:40;99004.16;;;25.57;37.04
32642;BME280;19323;56.072;9.698;2023-01-30T07:03:13;98998.81;;;25.57;37.00
32642;BME280;19323;56.072;9.698;2023-01-30T07:05:39;98984.59;;;25.56;37.12
32642;BME280;19323;56.072;9.698;2023-01-30T07:08:04;98997.97;;;25.56;37.11
32642;BME280;19323;56.072;9.698;2023-01-30T07:10:29;98993.63;;;25.55;37.01
32642;BME280;19323;56.072;9.698;2023-01-30T07:12:56;98996.13;;;25.57;37.26
32642;BME280;19323;56.072;9.698;2023-01-30T07:15:21;98989.94;;;25.56;37.10
32642;BME280;19323;56.072;9.698;2023-01-30T07:17:46;98989.09;;;25.56;37.26
32642;BME280;19323;56.072;9.698;2023-01-30T07:20:11;99003.34;;;25.56;37.17
32642;BME280;19323;56.072;9.698;2023-01-30T07:22:37;98996.94;;;25.57;37.43
32642;BME280;19323;56.072;9.698;2023-01-30T07:25:02;98975.44;;;25.44;36.93
32642;BME280;19323;56.072;9.698;2023-01-30T07:27:27;98993.44;;;25.57;37.02
32642;BME280;19323;56.072;9.698;2023-01-30T07:29:52;98999.63;;;25.57;37.32
32642;BME280;19323;56.072;9.698;2023-01-30T07:32:18;98996.94;;;25.57;37.24
32642;BME280;19323;56.072;9.698;2023-01-30T07:34:44;98998.81;;;25.57;37.18
32642;BME280;19323;56.072;9.698;2023-01-30T07:37:09;98992.41;;;25.58;37.26
32642;BME280;19323;56.072;9.698;2023-01-30T07:39:34;98991.59;;;25.57;37.11
32642;BME280;19323;56.072;9.698;2023-01-30T07:42:00;98975.50;;;25.57;37.28
32642;BME280;19323;56.072;9.698;2023-01-30T07:44:25;98971.81;;;25.58;37.29
32642;BME280;19323;56.072;9.698;2023-01-30T07:46:50;98974.47;;;25.58;37.37
32642;BME280;19323;56.072;9.698;2023-01-30T07:49:16;98979.84;;;25.58;37.36
32642;BME280;19323;56.072;9.698;2023-01-30T07:51:41;98972.81;;;25.57;37.51
32642;BME280;19323;56.072;9.698;2023-01-30T07:54:06;98977.34;;;25.57;37.35
32642;BME280;19323;56.072;9.698;2023-01-30T07:56:31;98974.88;;;25.55;37.23
32642;BME280;19323;56.072;9.698;2023-01-30T07:58:56;98929.81;;;25.24;37.23
32642;BME280;19323;56.072;9.698;2023-01-30T08:01:22;98980.22;;;25.55;37.53
32642;BME280;19323;56.072;9.698;2023-01-30T08:03:47;98974.06;;;25.55;37.48
32642;BME280;19323;56.072;9.698;2023-01-30T08:06:13;98970.56;;;25.54;37.27
32642;BME280;19323;56.072;9.698;2023-01-30T08:08:38;98968.88;;;25.53;37.34
32642;BME280;19323;56.072;9.698;2023-01-30T08:11:04;98970.56;;;25.54;37.28
32642;BME280;19323;56.072;9.698;2023-01-30T08:13:29;98960.84;;;25.53;37.35
32642;BME280;19323;56.072;9.698;2023-01-30T08:15:54;98970.56;;;25.54;37.46
32642;BME280;19323;56.072;9.698;2023-01-30T08:18:19;98968.69;;;25.55;37.35
32642;BME280;19323;56.072;9.698;2023-01-30T08:20:44;98959.81;;;25.54;37.50
32642;BME280;19323;56.072;9.698;2023-01-30T08:23:10;98965.19;;;25.54;37.21
32642;BME280;19323;56.072;9.698;2023-01-30T08:25:35;98958.97;;;25.54;37.08
32642;BME280;19323;56.072;9.698;2023-01-30T08:28:01;98968.69;;;25.55;37.28
32642;BME280;19323;56.072;9.698;2023-01-30T08:30:26;98961.66;;;25.54;36.97
32642;BME280;19323;56.072;9.698;2023-01-30T08:32:52;98965.38;;;25.53;36.88
32642;BME280;19323;56.072;9.698;2023-01-30T08:35:17;98967.88;;;25.54;36.85
32642;BME280;19323;56.072;9.698;2023-01-30T08:37:42;98970.56;;;25.54;37.01
32642;BME280;19323;56.072;9.698;2023-01-30T08:40:08;98980.41;;;25.54;37.07
32642;BME280;19323;56.072;9.698;2023-01-30T08:42:33;98969.50;;;25.55;37.12
32642;BME280;19323;56.072;9.698;2023-01-30T08:44:59;98958.59;;;25.57;36.89
32642;BME280;19323;56.072;9.698;2023-01-30T08:47:24;98966.63;;;25.57;36.97
32642;BME280;19323;56.072;9.698;2023-01-30T08:49:49;98963.94;;;25.57;36.76
32642;BME280;19323;56.072;9.698;2023-01-30T08:52:16;98963.13;;;25.56;36.63
32642;BME280;19323;56.072;9.698;2023-01-30T08:54:41;98962.28;;;25.56;36.60
32642;BME280;19323;56.072;9.698;2023-01-30T08:57:07;98961.28;;;25.57;36.64
32642;BME280;19323;56.072;9.698;2023-01-30T08:59:32;98955.28;;;25.55;36.66
32642;BME280;19323;56.072;9.698;2023-01-30T09:01:57;98965.81;;;25.56;36.83
32642;BME280;19323;56.072;9.698;2023-01-30T09:04:22;98963.13;;;25.56;36.61
32642;BME280;19323;56.072;9.698;2023-01-30T09:06:50;98955.09;;;25.56;36.77
32642;BME280;19323;56.072;9.698;2023-01-30T09:09:15;98976.53;;;25.56;36.65
32642;BME280;19323;56.072;9.698;2023-01-30T09:11:40;98978.19;;;25.57;36.76
32642;BME280;19323;56.072;9.698;2023-01-30T09:14:05;98980.22;;;25.55;36.47
32642;BME280;19323;56.072;9.698;2023-01-30T09:16:30;98981.91;;;25.56;36.40
32642;BME280;19323;56.072;9.698;2023-01-30T09:18:56;98987.25;;;25.56;36.44
32642;BME280;19323;56.072;9.698;2023-01-30T09:21:21;98978.19;;;25.57;36.46
32642;BME280;19323;56.072;9.698;2023-01-30T09:23:46;98982.72;;;25.57;36.41
32642;BME280;19323;56.072;9.698;2023-01-30T09:26:11;98974.88;;;25.55;36.24
32642;BME280;19323;56.072;9.698;2023-01-30T09:28:36;98980.22;;;25.55;36.39
32642;BME280;19323;56.072;9.698;2023-01-30T09:31:02;98969.50;;;25.55;36.14
32642;BME280;19323;56.072;9.698;2023-01-30T09:33:27;98976.53;;;25.56;36.29
32642;BME280;19323;56.072;9.698;2023-01-30T09:35:52;98972.38;;;25.54;36.25
32642;BME280;19323;56.072;9.698;2023-01-30T09:38:17;98970.56;;;25.54;36.13
32642;BME280;19323;56.072;9.698;2023-01-30T09:40:52;98975.91;;;25.54;36.26
32642;BME280;19323;56.072;9.698;2023-01-30T09:46:10;98978.59;;;25.54;36.09
32642;BME280;19323;56.072;9.698;2023-01-30T09:48:42;98973.44;;;25.53;36.35
32642;BME280;19323;56.072;9.698;2023-01-30T09:51:26;98968.69;;;25.55;36.05
32642;BME280;19323;56.072;9.698;2023-01-30T09:56:20;98974.06;;;25.55;36.28
32642;BME280;19323;56.072;9.698;2023-01-30T09:58:50;98966.81;;;25.55;36.24
32642;BME280;19323;56.072;9.698;2023-01-30T10:01:21;98974.88;;;25.55;36.23
32642;BME280;19323;56.072;9.698;2023-01-30T10:03:56;98965.81;;;25.56;36.52
32642;BME280;19323;56.072;9.698;2023-01-30T10:06:23;98979.84;;;25.58;36.25
32642;BME280;19323;56.072;9.698;2023-01-30T10:14:14;98947.44;;;25.60;36.14
32642;BME280;19323;56.072;9.698;2023-01-30T10:16:52;98952.81;;;25.60;36.22
32642;BME280;19323;56.072;9.698;2023-01-30T10:19:24;98949.31;;;25.59;36.47
32642;BME280;19323;56.072;9.698;2023-01-30T10:24:37;98955.50;;;25.60;36.13
32642;BME280;19323;56.072;9.698;2023-01-30T10:27:12;98948.50;;;25.59;36.45
32642;BME280;19323;56.072;9.698;2023-01-30T10:29:40;98960.66;;;25.61;36.43
32642;BME280;19323;56.072;9.698;2023-01-30T10:34:46;98981.69;;;25.64;36.27
32642;BME280;19323;56.072;9.698;2023-01-30T10:39:53;99007.28;;;25.67;36.29
32642;BME280;19323;56.072;9.698;2023-01-30T10:42:22;99004.41;;;25.68;36.24
32642;BME280;19323;56.072;9.698;2023-01-30T10:44:50;98988.94;;;25.70;36.28
32642;BME280;19323;56.072;9.698;2023-01-30T10:55:24;99031.41;;;25.67;36.45
32642;BME280;19323;56.072;9.698;2023-01-30T11:00:32;99027.09;;;25.66;36.51
32642;BME280;19323;56.072;9.698;2023-01-30T11:05:26;99031.41;;;25.67;36.46
32642;BME280;19323;56.072;9.698;2023-01-30T11:07:52;99018.84;;;25.67;36.59
32642;BME280;19323;56.072;9.698;2023-01-30T11:10:21;99029.56;;;25.67;36.40
32642;BME280;19323;56.072;9.698;2023-01-30T11:12:47;99024.41;;;25.66;36.43
32642;BME280;19323;56.072;9.698;2023-01-30T11:15:16;99035.13;;;25.66;36.48
32642;BME280;19323;56.072;9.698;2023-01-30T11:17:41;99035.94;;;25.66;36.33
32642;BME280;19323;56.072;9.698;2023-01-30T11:20:11;99028.13;;;25.65;36.49
32642;BME280;19323;56.072;9.698;2023-01-30T11:22:37;99022.75;;;25.65;36.42
32642;BME280;19323;56.072;9.698;2023-01-30T11:25:12;99032.63;;;25.64;36.40
32642;BME280;19323;56.072;9.698;2023-01-30T11:27:38;99017.41;;;25.65;36.27
32642;BME280;19323;56.072;9.698;2023-01-30T11:32:31;99022.13;;;25.63;36.35
32642;BME280;19323;56.072;9.698;2023-01-30T11:35:10;99023.16;;;25.62;36.29
32642;BME280;19323;56.072;9.698;2023-01-30T11:37:41;99040.28;;;25.61;36.62
32642;BME280;19323;56.072;9.698;2023-01-30T11:42:45;99041.50;;;25.58;36.55
32642;BME280;19323;56.072;9.698;2023-01-30T11:45:11;99044.19;;;25.58;36.44
32642;BME280;19323;56.072;9.698;2023-01-30T11:47:37;99042.53;;;25.57;36.19
32642;BME280;19323;56.072;9.698;2023-01-30T11:50:03;99045.81;;;25.59;36.14
32642;BME280;19323;56.072;9.698;2023-01-30T11:52:30;99033.47;;;25.58;36.25
32642;BME280;19323;56.072;9.698;2023-01-30T11:55:00;99048.50;;;25.59;36.13
32642;BME280;19323;56.072;9.698;2023-01-30T11:57:29;99042.97;;;25.61;36.09
32642;BME280;19323;56.072;9.698;2023-01-30T12:00:02;99026.25;;;25.59;36.22
32642;BME280;19323;56.072;9.698;2023-01-30T12:04:58;99043.78;;;25.61;36.29
32642;BME280;19323;56.072;9.698;2023-01-30T12:07:25;99046.47;;;25.61;36.09
32642;BME280;19323;56.072;9.698;2023-01-30T12:09:50;99046.47;;;25.61;35.85
32642;BME280;19323;56.072;9.698;2023-01-30T12:12:26;99043.78;;;25.61;35.80
32642;BME280;19323;56.072;9.698;2023-01-30T12:14:53;99067.72;;;25.63;35.75
32642;BME280;19323;56.072;9.698;2023-01-30T12:17:32;99051.81;;;25.61;35.92
32642;BME280;19323;56.072;9.698;2023-01-30T12:22:34;99038.56;;;25.53;35.56
32642;BME280;19323;56.072;9.698;2023-01-30T12:25:51;99066.88;;;25.62;36.04
32642;BME280;19323;56.072;9.698;2023-01-30T12:28:32;99081.13;;;25.63;35.69
32642;BME280;19323;56.072;9.698;2023-01-30T12:30:53;99091.00;;;25.62;35.86
32642;BME280;19323;56.072;9.698;2023-01-30T12:33:20;99094.72;;;25.61;35.92
32642;BME280;19323;56.072;9.698;2023-01-30T12:40:49;99084.00;;;25.61;35.55
32642;BME280;19323;56.072;9.698;2023-01-30T12:46:04;99107.72;;;25.64;35.66
32642;BME280;19323;56.072;9.698;2023-01-30T12:48:47;99139.88;;;25.64;35.84
32642;BME280;19323;56.072;9.698;2023-01-30T12:54:18;99112.25;;;25.64;35.61
32642;BME280;19323;56.072;9.698;2023-01-30T12:59:25;99127.13;;;25.66;35.46
32642;BME280;19323;56.072;9.698;2023-01-30T13:05:16;99140.31;;;25.68;35.41
32642;BME280;19323;56.072;9.698;2023-01-30T13:07:40;99156.00;;;25.71;35.49
32642;BME280;19323;56.072;9.698;2023-01-30T13:13:19;99193.38;;;25.73;35.31
32642;BME280;19323;56.072;9.698;2023-01-30T13:15:50;99192.34;;;25.74;35.35
32642;BME280;19323;56.072;9.698;2023-01-30T13:18:33;99210.09;;;25.75;35.18
32642;BME280;19323;56.072;9.698;2023-01-30T13:21:05;99199.34;;;25.75;35.25
32642;BME280;19323;56.072;9.698;2023-01-30T13:26:17;99203.50;;;25.77;35.37
32642;BME280;19323;56.072;9.698;2023-01-30T13:28:46;99216.72;;;25.79;35.42
32642;BME280;19323;56.072;9.698;2023-01-30T13:31:13;99227.44;;;25.79;35.46
32642;BME280;19323;56.072;9.698;2023-01-30T13:33:41;99220.03;;;25.81;35.38
32642;BME280;19323;56.072;9.698;2023-01-30T13:39:15;99246.25;;;25.85;35.64
32642;BME280;19323;56.072;9.698;2023-01-30T13:41:44;99255.13;;;25.86;35.28
32642;BME280;19323;56.072;9.698;2023-01-30T13:44:16;99263.84;;;25.88;35.51
32642;BME280;19323;56.072;9.698;2023-01-30T13:46:42;99291.28;;;25.90;35.28
32642;BME280;19323;56.072;9.698;2023-01-30T13:49:11;99247.38;;;25.91;35.36
32642;BME280;19323;56.072;9.698;2023-01-30T13:51:41;99287.59;;;25.91;35.07
32642;BME280;19323;56.072;9.698;2023-01-30T14:07:10;99326.22;;;25.97;35.14
32642;BME280;19323;56.072;9.698;2023-01-30T14:09:42;99360.91;;;25.98;34.99
32642;BME280;19323;56.072;9.698;2023-01-30T14:12:15;99341.31;;;25.98;35.09
32642;BME280;19323;56.072;9.698;2023-01-30T14:14:42;99360.91;;;25.98;34.68
32642;BME280;19323;56.072;9.698;2023-01-30T14:17:20;99364.41;;;25.99;34.92
32642;BME280;19323;56.072;9.698;2023-01-30T14:19:52;99366.06;;;26.00;34.56
32642;BME280;19323;56.072;9.698;2023-01-30T14:22:32;99374.94;;;26.00;34.77
32642;BME280;19323;56.072;9.698;2023-01-30T14:27:42;99391.06;;;26.00;34.54
32642;BME280;19323;56.072;9.698;2023-01-30T14:30:54;99401.78;;;26.00;34.86
32642;BME280;19323;56.072;9.698;2023-01-30T14:32:53;99394.75;;;25.99;34.47
32642;BME280;19323;56.072;9.698;2023-01-30T14:35:20;99432.13;;;26.01;34.55
32642;BME280;19323;56.072;9.698;2023-01-30T14:37:46;99417.66;;;26.02;34.81
32642;BME280;19323;56.072;9.698;2023-01-30T14:45:46;99440.16;;;26.01;34.72
32642;BME280;19323;56.072;9.698;2023-01-30T14:48:28;99449.03;;;26.01;34.55